sensor_id;sensor_type;location;lat;lon;timestamp;temperature;humidity
46784;DHT22;32544;52.832;13.816;2023-09-07T00:00:40;26.30;51.80
46784;DHT22;32544;52.832;13.816;2023-09-07T00:01:41;26.30;51.90
46784;DHT22;32544;52.832;13.816;2023-09-07T00:02:41;26.30;51.90
46784;DHT22;32544;52.832;13.816;2023-09-07T00:03:42;26.20;52.00
46784;DHT22;32544;52.832;13.816;2023-09-07T00:04:43;26.20;52.00
46784;DHT22;32544;52.832;13.816;2023-09-07T00:05:43;26.20;52.00
46784;DHT22;32544;52.832;13.816;2023-09-07T00:06:45;26.30;52.10
46784;DHT22;32544;52.832;13.816;2023-09-07T00:07:45;26.20;52.00
46784;DHT22;32544;52.832;13.816;2023-09-07T00:08:46;26.30;52.00
46784;DHT22;32544;52.832;13.816;2023-09-07T00:09:46;26.30;51.90
46784;DHT22;32544;52.832;13.816;2023-09-07T00:10:47;26.30;51.90
46784;DHT22;32544;52.832;13.816;2023-09-07T00:11:48;26.20;51.90
46784;DHT22;32544;52.832;13.816;2023-09-07T00:12:48;26.20;51.90
46784;DHT22;32544;52.832;13.816;2023-09-07T00:13:49;26.20;51.90
46784;DHT22;32544;52.832;13.816;2023-09-07T00:14:52;26.20;51.90
46784;DHT22;32544;52.832;13.816;2023-09-07T00:15:52;26.20;51.90
46784;DHT22;32544;52.832;13.816;2023-09-07T00:16:53;26.20;52.00
46784;DHT22;32544;52.832;13.816;2023-09-07T00:17:53;26.20;52.00
46784;DHT22;32544;52.832;13.816;2023-09-07T00:18:54;26.20;52.00
46784;DHT22;32544;52.832;13.816;2023-09-07T00:19:54;26.20;51.90
46784;DHT22;32544;52.832;13.816;2023-09-07T00:20:57;26.20;51.90
46784;DHT22;32544;52.832;13.816;2023-09-07T00:21:58;26.20;51.90
46784;DHT22;32544;52.832;13.816;2023-09-07T00:22:59;26.20;51.90
46784;DHT22;32544;52.832;13.816;2023-09-07T00:24:00;26.20;51.90
46784;DHT22;32544;52.832;13.816;2023-09-07T00:25:05;26.20;51.90
46784;DHT22;32544;52.832;13.816;2023-09-07T00:26:07;26.20;51.90
46784;DHT22;32544;52.832;13.816;2023-09-07T00:27:07;26.20;51.90
46784;DHT22;32544;52.832;13.816;2023-09-07T00:28:08;26.20;51.90
46784;DHT22;32544;52.832;13.816;2023-09-07T00:29:08;26.20;51.80
46784;DHT22;32544;52.832;13.816;2023-09-07T00:30:09;26.20;51.90
46784;DHT22;32544;52.832;13.816;2023-09-07T00:31:10;26.20;51.90
46784;DHT22;32544;52.832;13.816;2023-09-07T00:32:11;26.20;51.80
46784;DHT22;32544;52.832;13.816;2023-09-07T00:33:11;26.30;51.90
46784;DHT22;32544;52.832;13.816;2023-09-07T00:34:12;26.30;51.90
46784;DHT22;32544;52.832;13.816;2023-09-07T00:35:12;26.20;51.90
46784;DHT22;32544;52.832;13.816;2023-09-07T00:36:13;26.20;51.80
46784;DHT22;32544;52.832;13.816;2023-09-07T00:37:13;26.20;51.80
46784;DHT22;32544;52.832;13.816;2023-09-07T00:38:14;26.30;51.80
46784;DHT22;32544;52.832;13.816;2023-09-07T00:39:14;26.20;51.80
46784;DHT22;32544;52.832;13.816;2023-09-07T00:40:15;26.20;51.80
46784;DHT22;32544;52.832;13.816;2023-09-07T00:41:15;26.20;51.80
46784;DHT22;32544;52.832;13.816;2023-09-07T00:42:16;26.20;51.80
46784;DHT22;32544;52.832;13.816;2023-09-07T00:43:17;26.20;51.70
46784;DHT22;32544;52.832;13.816;2023-09-07T00:44:17;26.20;51.80
46784;DHT22;32544;52.832;13.816;2023-09-07T00:45:18;26.20;51.80
46784;DHT22;32544;52.832;13.816;2023-09-07T00:46:19;26.20;51.80
46784;DHT22;32544;52.832;13.816;2023-09-07T00:47:22;26.20;51.80
46784;DHT22;32544;52.832;13.816;2023-09-07T00:48:23;26.20;51.80
46784;DHT22;32544;52.832;13.816;2023-09-07T00:49:24;26.20;51.90
46784;DHT22;32544;52.832;13.816;2023-09-07T00:50:25;26.20;51.90
46784;DHT22;32544;52.832;13.816;2023-09-07T00:51:26;26.20;51.90
46784;DHT22;32544;52.832;13.816;2023-09-07T00:52:27;26.20;52.00
46784;DHT22;32544;52.832;13.816;2023-09-07T00:53:27;26.20;52.00
46784;DHT22;32544;52.832;13.816;2023-09-07T00:54:28;26.20;52.00
46784;DHT22;32544;52.832;13.816;2023-09-07T00:55:30;26.10;51.80
46784;DHT22;32544;52.832;13.816;2023-09-07T00:56:33;26.10;51.80
46784;DHT22;32544;52.832;13.816;2023-09-07T00:57:35;26.10;51.90
46784;DHT22;32544;52.832;13.816;2023-09-07T00:58:37;26.10;52.00
46784;DHT22;32544;52.832;13.816;2023-09-07T00:59:38;26.20;52.00
46784;DHT22;32544;52.832;13.816;2023-09-07T01:00:39;26.20;52.00
46784;DHT22;32544;52.832;13.816;2023-09-07T01:01:40;26.10;51.90
46784;DHT22;32544;52.832;13.816;2023-09-07T01:02:42;26.10;51.90
46784;DHT22;32544;52.832;13.816;2023-09-07T01:03:45;26.10;51.90
46784;DHT22;32544;52.832;13.816;2023-09-07T01:04:46;26.10;51.80
46784;DHT22;32544;52.832;13.816;2023-09-07T01:05:51;26.10;51.80
46784;DHT22;32544;52.832;13.816;2023-09-07T01:06:56;26.10;51.90
46784;DHT22;32544;52.832;13.816;2023-09-07T01:07:58;26.20;52.00
46784;DHT22;32544;52.832;13.816;2023-09-07T01:09:00;26.10;52.30
46784;DHT22;32544;52.832;13.816;2023-09-07T01:10:04;26.10;51.90
46784;DHT22;32544;52.832;13.816;2023-09-07T01:11:12;26.10;51.80
46784;DHT22;32544;52.832;13.816;2023-09-07T01:12:14;26.10;51.90
46784;DHT22;32544;52.832;13.816;2023-09-07T01:13:14;26.10;51.80
46784;DHT22;32544;52.832;13.816;2023-09-07T01:14:15;26.10;51.80
46784;DHT22;32544;52.832;13.816;2023-09-07T01:15:15;26.10;51.80
46784;DHT22;32544;52.832;13.816;2023-09-07T01:16:16;26.10;51.90
46784;DHT22;32544;52.832;13.816;2023-09-07T01:17:17;26.10;51.90
46784;DHT22;32544;52.832;13.816;2023-09-07T01:18:17;26.10;51.90
46784;DHT22;32544;52.832;13.816;2023-09-07T01:19:19;26.10;51.90
46784;DHT22;32544;52.832;13.816;2023-09-07T01:20:20;26.10;51.80
46784;DHT22;32544;52.832;13.816;2023-09-07T01:21:20;26.10;51.90
46784;DHT22;32544;52.832;13.816;2023-09-07T01:22:22;26.10;51.90
46784;DHT22;32544;52.832;13.816;2023-09-07T01:23:23;26.10;51.90
46784;DHT22;32544;52.832;13.816;2023-09-07T01:24:24;26.10;51.90
46784;DHT22;32544;52.832;13.816;2023-09-07T01:25:26;26.10;51.90
46784;DHT22;32544;52.832;13.816;2023-09-07T01:26:28;26.10;51.80
46784;DHT22;32544;52.832;13.816;2023-09-07T01:27:29;26.10;51.80
46784;DHT22;32544;52.832;13.816;2023-09-07T01:28:30;26.10;51.80
46784;DHT22;32544;52.832;13.816;2023-09-07T01:29:31;26.10;51.80
46784;DHT22;32544;52.832;13.816;2023-09-07T01:30:34;26.10;51.80
46784;DHT22;32544;52.832;13.816;2023-09-07T01:31:35;26.10;51.80
46784;DHT22;32544;52.832;13.816;2023-09-07T01:32:36;26.10;51.80
46784;DHT22;32544;52.832;13.816;2023-09-07T01:33:37;26.10;51.80
46784;DHT22;32544;52.832;13.816;2023-09-07T01:34:38;26.10;51.80
46784;DHT22;32544;52.832;13.816;2023-09-07T01:35:38;26.10;51.80
46784;DHT22;32544;52.832;13.816;2023-09-07T01:36:40;26.10;51.80
46784;DHT22;32544;52.832;13.816;2023-09-07T01:37:40;26.10;51.80
46784;DHT22;32544;52.832;13.816;2023-09-07T01:38:41;26.10;51.80
46784;DHT22;32544;52.832;13.816;2023-09-07T01:39:41;26.10;51.70
46784;DHT22;32544;52.832;13.816;2023-09-07T01:40:42;26.10;51.70
46784;DHT22;32544;52.832;13.816;2023-09-07T01:41:44;26.10;51.70
46784;DHT22;32544;52.832;13.816;2023-09-07T01:42:45;26.10;51.70
46784;DHT22;32544;52.832;13.816;2023-09-07T01:43:46;26.10;51.70
46784;DHT22;32544;52.832;13.816;2023-09-07T01:44:46;26.10;51.70
46784;DHT22;32544;52.832;13.816;2023-09-07T01:45:47;26.10;51.70
46784;DHT22;32544;52.832;13.816;2023-09-07T01:46:48;26.10;51.60
46784;DHT22;32544;52.832;13.816;2023-09-07T01:47:49;26.10;51.60
46784;DHT22;32544;52.832;13.816;2023-09-07T01:48:49;26.10;51.60
46784;DHT22;32544;52.832;13.816;2023-09-07T01:49:50;26.10;51.50
46784;DHT22;32544;52.832;13.816;2023-09-07T01:50:54;26.10;51.50
46784;DHT22;32544;52.832;13.816;2023-09-07T01:51:54;26.20;51.70
46784;DHT22;32544;52.832;13.816;2023-09-07T01:52:55;26.20;51.60
46784;DHT22;32544;52.832;13.816;2023-09-07T01:53:55;26.20;51.70
46784;DHT22;32544;52.832;13.816;2023-09-07T01:54:56;26.10;51.60
46784;DHT22;32544;52.832;13.816;2023-09-07T01:55:56;26.20;51.70
46784;DHT22;32544;52.832;13.816;2023-09-07T01:56:59;26.20;51.60
46784;DHT22;32544;52.832;13.816;2023-09-07T01:57:59;26.10;51.60
46784;DHT22;32544;52.832;13.816;2023-09-07T01:59:00;26.10;51.70
46784;DHT22;32544;52.832;13.816;2023-09-07T02:00:01;26.10;51.70
46784;DHT22;32544;52.832;13.816;2023-09-07T02:01:01;26.10;51.70
46784;DHT22;32544;52.832;13.816;2023-09-07T02:02:02;26.10;51.70
46784;DHT22;32544;52.832;13.816;2023-09-07T02:03:03;26.10;51.60
46784;DHT22;32544;52.832;13.816;2023-09-07T02:04:04;26.10;51.60
46784;DHT22;32544;52.832;13.816;2023-09-07T02:05:05;26.10;51.60
46784;DHT22;32544;52.832;13.816;2023-09-07T02:06:05;26.10;51.60
46784;DHT22;32544;52.832;13.816;2023-09-07T02:07:06;26.10;51.60
46784;DHT22;32544;52.832;13.816;2023-09-07T02:08:07;26.10;51.60
46784;DHT22;32544;52.832;13.816;2023-09-07T02:09:07;26.10;51.60
46784;DHT22;32544;52.832;13.816;2023-09-07T02:10:09;26.10;51.50
46784;DHT22;32544;52.832;13.816;2023-09-07T02:11:09;26.10;51.50
46784;DHT22;32544;52.832;13.816;2023-09-07T02:12:10;26.10;51.50
46784;DHT22;32544;52.832;13.816;2023-09-07T02:13:11;26.10;51.50
46784;DHT22;32544;52.832;13.816;2023-09-07T02:14:12;26.10;51.60
46784;DHT22;32544;52.832;13.816;2023-09-07T02:15:12;26.10;51.60
46784;DHT22;32544;52.832;13.816;2023-09-07T02:16:13;26.10;51.60
46784;DHT22;32544;52.832;13.816;2023-09-07T02:17:14;26.10;51.60
46784;DHT22;32544;52.832;13.816;2023-09-07T02:18:18;26.10;51.50
46784;DHT22;32544;52.832;13.816;2023-09-07T02:19:19;26.10;51.50
46784;DHT22;32544;52.832;13.816;2023-09-07T02:20:22;26.10;51.50
46784;DHT22;32544;52.832;13.816;2023-09-07T02:21:23;26.10;51.50
46784;DHT22;32544;52.832;13.816;2023-09-07T02:22:24;26.10;51.50
46784;DHT22;32544;52.832;13.816;2023-09-07T02:23:25;26.10;51.40
46784;DHT22;32544;52.832;13.816;2023-09-07T02:24:25;26.10;51.40
46784;DHT22;32544;52.832;13.816;2023-09-07T02:25:26;26.10;51.50
46784;DHT22;32544;52.832;13.816;2023-09-07T02:26:28;26.00;51.40
46784;DHT22;32544;52.832;13.816;2023-09-07T02:27:28;26.10;51.50
46784;DHT22;32544;52.832;13.816;2023-09-07T02:28:29;26.00;51.40
46784;DHT22;32544;52.832;13.816;2023-09-07T02:29:29;26.10;51.40
46784;DHT22;32544;52.832;13.816;2023-09-07T02:30:30;26.10;51.40
46784;DHT22;32544;52.832;13.816;2023-09-07T02:31:33;26.10;51.40
46784;DHT22;32544;52.832;13.816;2023-09-07T02:32:33;26.00;51.40
46784;DHT22;32544;52.832;13.816;2023-09-07T02:33:34;26.10;51.50
46784;DHT22;32544;52.832;13.816;2023-09-07T02:34:36;26.00;51.40
46784;DHT22;32544;52.832;13.816;2023-09-07T02:35:37;26.10;51.50
46784;DHT22;32544;52.832;13.816;2023-09-07T02:36:38;26.00;51.40
46784;DHT22;32544;52.832;13.816;2023-09-07T02:37:38;26.00;51.40
46784;DHT22;32544;52.832;13.816;2023-09-07T02:38:40;26.10;51.50
46784;DHT22;32544;52.832;13.816;2023-09-07T02:39:41;26.00;52.00
46784;DHT22;32544;52.832;13.816;2023-09-07T02:40:42;26.00;51.40
46784;DHT22;32544;52.832;13.816;2023-09-07T02:41:43;26.10;51.50
46784;DHT22;32544;52.832;13.816;2023-09-07T02:42:44;26.10;51.40
46784;DHT22;32544;52.832;13.816;2023-09-07T02:43:44;26.00;51.30
46784;DHT22;32544;52.832;13.816;2023-09-07T02:44:45;26.00;51.30
46784;DHT22;32544;52.832;13.816;2023-09-07T02:45:46;26.10;51.40
46784;DHT22;32544;52.832;13.816;2023-09-07T02:46:46;26.10;51.40
46784;DHT22;32544;52.832;13.816;2023-09-07T02:47:47;26.10;51.30
46784;DHT22;32544;52.832;13.816;2023-09-07T02:48:51;26.00;51.30
46784;DHT22;32544;52.832;13.816;2023-09-07T02:49:51;26.10;51.40
46784;DHT22;32544;52.832;13.816;2023-09-07T02:50:52;26.10;51.30
46784;DHT22;32544;52.832;13.816;2023-09-07T02:51:56;26.00;51.30
46784;DHT22;32544;52.832;13.816;2023-09-07T02:52:57;26.00;51.30
46784;DHT22;32544;52.832;13.816;2023-09-07T02:53:58;26.00;51.30
46784;DHT22;32544;52.832;13.816;2023-09-07T02:54:59;26.10;51.40
46784;DHT22;32544;52.832;13.816;2023-09-07T02:56:00;26.10;51.30
46784;DHT22;32544;52.832;13.816;2023-09-07T02:57:03;26.10;51.30
46784;DHT22;32544;52.832;13.816;2023-09-07T02:58:03;26.10;51.30
46784;DHT22;32544;52.832;13.816;2023-09-07T02:59:04;26.10;51.30
46784;DHT22;32544;52.832;13.816;2023-09-07T03:00:05;26.00;51.20
46784;DHT22;32544;52.832;13.816;2023-09-07T03:01:10;26.00;51.90
46784;DHT22;32544;52.832;13.816;2023-09-07T03:02:11;26.10;51.30
46784;DHT22;32544;52.832;13.816;2023-09-07T03:03:12;26.10;51.30
46784;DHT22;32544;52.832;13.816;2023-09-07T03:04:13;26.00;51.20
46784;DHT22;32544;52.832;13.816;2023-09-07T03:05:15;26.00;51.30
46784;DHT22;32544;52.832;13.816;2023-09-07T03:06:16;26.00;51.30
46784;DHT22;32544;52.832;13.816;2023-09-07T03:07:23;26.00;51.30
46784;DHT22;32544;52.832;13.816;2023-09-07T03:08:23;26.00;51.30
46784;DHT22;32544;52.832;13.816;2023-09-07T03:09:25;26.00;51.40
46784;DHT22;32544;52.832;13.816;2023-09-07T03:10:26;26.00;51.30
46784;DHT22;32544;52.832;13.816;2023-09-07T03:11:26;26.00;51.40
46784;DHT22;32544;52.832;13.816;2023-09-07T03:12:28;26.00;51.40
46784;DHT22;32544;52.832;13.816;2023-09-07T03:13:28;26.00;51.40
46784;DHT22;32544;52.832;13.816;2023-09-07T03:14:29;26.00;51.40
46784;DHT22;32544;52.832;13.816;2023-09-07T03:15:30;26.00;51.40
46784;DHT22;32544;52.832;13.816;2023-09-07T03:16:30;26.00;51.30
46784;DHT22;32544;52.832;13.816;2023-09-07T03:17:31;26.00;51.30
46784;DHT22;32544;52.832;13.816;2023-09-07T03:18:32;26.10;51.40
46784;DHT22;32544;52.832;13.816;2023-09-07T03:19:32;26.00;51.40
46784;DHT22;32544;52.832;13.816;2023-09-07T03:20:33;26.00;51.40
46784;DHT22;32544;52.832;13.816;2023-09-07T03:21:34;25.90;51.90
46784;DHT22;32544;52.832;13.816;2023-09-07T03:22:35;26.00;51.40
46784;DHT22;32544;52.832;13.816;2023-09-07T03:23:36;26.00;51.40
46784;DHT22;32544;52.832;13.816;2023-09-07T03:24:37;26.00;51.40
46784;DHT22;32544;52.832;13.816;2023-09-07T03:25:38;26.00;51.40
46784;DHT22;32544;52.832;13.816;2023-09-07T03:26:38;26.00;51.40
46784;DHT22;32544;52.832;13.816;2023-09-07T03:27:39;26.00;51.30
46784;DHT22;32544;52.832;13.816;2023-09-07T03:28:42;26.00;51.30
46784;DHT22;32544;52.832;13.816;2023-09-07T03:29:45;26.00;51.30
46784;DHT22;32544;52.832;13.816;2023-09-07T03:30:46;26.00;51.30
46784;DHT22;32544;52.832;13.816;2023-09-07T03:31:46;26.00;51.30
46784;DHT22;32544;52.832;13.816;2023-09-07T03:32:47;26.00;51.30
46784;DHT22;32544;52.832;13.816;2023-09-07T03:33:48;26.10;51.30
46784;DHT22;32544;52.832;13.816;2023-09-07T03:34:49;26.10;51.30
46784;DHT22;32544;52.832;13.816;2023-09-07T03:35:50;26.10;51.20
46784;DHT22;32544;52.832;13.816;2023-09-07T03:36:52;26.10;51.30
46784;DHT22;32544;52.832;13.816;2023-09-07T03:37:53;26.10;51.20
46784;DHT22;32544;52.832;13.816;2023-09-07T03:38:53;26.10;51.20
46784;DHT22;32544;52.832;13.816;2023-09-07T03:39:57;26.10;51.20
46784;DHT22;32544;52.832;13.816;2023-09-07T03:40:57;26.10;51.20
46784;DHT22;32544;52.832;13.816;2023-09-07T03:41:58;26.10;51.20
46784;DHT22;32544;52.832;13.816;2023-09-07T03:42:59;26.10;51.20
46784;DHT22;32544;52.832;13.816;2023-09-07T03:44:00;26.10;51.90
46784;DHT22;32544;52.832;13.816;2023-09-07T03:45:03;26.10;51.20
46784;DHT22;32544;52.832;13.816;2023-09-07T03:46:04;26.10;51.20
46784;DHT22;32544;52.832;13.816;2023-09-07T03:47:05;26.10;51.20
46784;DHT22;32544;52.832;13.816;2023-09-07T03:48:06;26.00;51.20
46784;DHT22;32544;52.832;13.816;2023-09-07T03:49:06;26.00;51.20
46784;DHT22;32544;52.832;13.816;2023-09-07T03:50:07;26.00;51.20
46784;DHT22;32544;52.832;13.816;2023-09-07T03:51:09;26.10;51.30
46784;DHT22;32544;52.832;13.816;2023-09-07T03:52:09;26.00;51.20
46784;DHT22;32544;52.832;13.816;2023-09-07T03:53:10;26.00;51.10
46784;DHT22;32544;52.832;13.816;2023-09-07T03:54:11;26.00;51.10
46784;DHT22;32544;52.832;13.816;2023-09-07T03:55:11;26.00;51.20
46784;DHT22;32544;52.832;13.816;2023-09-07T03:56:12;26.10;51.20
46784;DHT22;32544;52.832;13.816;2023-09-07T03:57:13;26.00;51.10
46784;DHT22;32544;52.832;13.816;2023-09-07T03:58:14;26.00;51.10
46784;DHT22;32544;52.832;13.816;2023-09-07T03:59:16;26.00;51.10
46784;DHT22;32544;52.832;13.816;2023-09-07T04:00:16;26.00;51.10
46784;DHT22;32544;52.832;13.816;2023-09-07T04:01:21;26.00;51.20
46784;DHT22;32544;52.832;13.816;2023-09-07T04:02:21;26.00;51.10
46784;DHT22;32544;52.832;13.816;2023-09-07T04:03:22;26.00;51.20
46784;DHT22;32544;52.832;13.816;2023-09-07T04:04:23;26.00;51.20
46784;DHT22;32544;52.832;13.816;2023-09-07T04:05:23;26.00;51.20
46784;DHT22;32544;52.832;13.816;2023-09-07T04:06:24;26.00;51.20
46784;DHT22;32544;52.832;13.816;2023-09-07T04:07:24;26.00;51.20
46784;DHT22;32544;52.832;13.816;2023-09-07T04:08:25;26.00;51.30
46784;DHT22;32544;52.832;13.816;2023-09-07T04:09:25;26.00;51.20
46784;DHT22;32544;52.832;13.816;2023-09-07T04:10:26;26.00;51.10
46784;DHT22;32544;52.832;13.816;2023-09-07T04:11:26;26.00;51.20
46784;DHT22;32544;52.832;13.816;2023-09-07T04:12:27;26.00;51.20
46784;DHT22;32544;52.832;13.816;2023-09-07T04:13:28;26.00;51.10
46784;DHT22;32544;52.832;13.816;2023-09-07T04:14:29;26.00;51.10
46784;DHT22;32544;52.832;13.816;2023-09-07T04:15:30;25.90;51.00
46784;DHT22;32544;52.832;13.816;2023-09-07T04:16:31;26.00;51.10
46784;DHT22;32544;52.832;13.816;2023-09-07T04:17:32;26.00;51.00
46784;DHT22;32544;52.832;13.816;2023-09-07T04:18:40;26.00;51.00
46784;DHT22;32544;52.832;13.816;2023-09-07T04:19:43;26.00;51.00
46784;DHT22;32544;52.832;13.816;2023-09-07T04:20:44;26.00;51.00
46784;DHT22;32544;52.832;13.816;2023-09-07T04:21:45;25.90;50.90
46784;DHT22;32544;52.832;13.816;2023-09-07T04:22:46;26.00;51.00
46784;DHT22;32544;52.832;13.816;2023-09-07T04:23:47;25.90;50.90
46784;DHT22;32544;52.832;13.816;2023-09-07T04:24:47;25.90;50.90
46784;DHT22;32544;52.832;13.816;2023-09-07T04:25:49;26.00;51.00
46784;DHT22;32544;52.832;13.816;2023-09-07T04:26:49;25.90;50.90
46784;DHT22;32544;52.832;13.816;2023-09-07T04:27:50;25.90;50.90
46784;DHT22;32544;52.832;13.816;2023-09-07T04:28:52;25.90;50.90
46784;DHT22;32544;52.832;13.816;2023-09-07T04:29:53;26.00;51.00
46784;DHT22;32544;52.832;13.816;2023-09-07T04:30:54;26.00;51.00
46784;DHT22;32544;52.832;13.816;2023-09-07T04:31:55;25.90;50.90
46784;DHT22;32544;52.832;13.816;2023-09-07T04:32:56;25.90;50.90
46784;DHT22;32544;52.832;13.816;2023-09-07T04:33:56;25.90;50.90
46784;DHT22;32544;52.832;13.816;2023-09-07T04:34:57;25.90;50.90
46784;DHT22;32544;52.832;13.816;2023-09-07T04:36:17;25.90;50.90
46784;DHT22;32544;52.832;13.816;2023-09-07T04:37:21;25.90;50.90
46784;DHT22;32544;52.832;13.816;2023-09-07T04:38:22;25.90;51.50
46784;DHT22;32544;52.832;13.816;2023-09-07T04:39:23;25.90;51.00
46784;DHT22;32544;52.832;13.816;2023-09-07T04:40:23;25.90;50.90
46784;DHT22;32544;52.832;13.816;2023-09-07T04:41:24;25.90;51.00
46784;DHT22;32544;52.832;13.816;2023-09-07T04:42:25;25.90;51.00
46784;DHT22;32544;52.832;13.816;2023-09-07T04:43:25;25.90;51.10
46784;DHT22;32544;52.832;13.816;2023-09-07T04:44:26;25.90;51.10
46784;DHT22;32544;52.832;13.816;2023-09-07T04:45:28;25.90;51.60
46784;DHT22;32544;52.832;13.816;2023-09-07T04:46:28;25.90;51.00
46784;DHT22;32544;52.832;13.816;2023-09-07T04:47:29;25.90;51.00
46784;DHT22;32544;52.832;13.816;2023-09-07T04:48:30;25.90;51.00
46784;DHT22;32544;52.832;13.816;2023-09-07T04:49:30;25.90;51.00
46784;DHT22;32544;52.832;13.816;2023-09-07T04:50:31;25.90;50.90
46784;DHT22;32544;52.832;13.816;2023-09-07T04:51:31;25.90;51.00
46784;DHT22;32544;52.832;13.816;2023-09-07T04:52:32;25.90;51.00
46784;DHT22;32544;52.832;13.816;2023-09-07T04:53:34;25.90;51.00
46784;DHT22;32544;52.832;13.816;2023-09-07T04:54:35;25.90;51.00
46784;DHT22;32544;52.832;13.816;2023-09-07T04:55:37;25.90;51.10
46784;DHT22;32544;52.832;13.816;2023-09-07T04:56:37;25.90;51.00
46784;DHT22;32544;52.832;13.816;2023-09-07T04:57:38;25.90;51.00
46784;DHT22;32544;52.832;13.816;2023-09-07T04:58:39;25.90;51.00
46784;DHT22;32544;52.832;13.816;2023-09-07T04:59:39;25.90;51.00
46784;DHT22;32544;52.832;13.816;2023-09-07T05:00:40;25.90;51.00
46784;DHT22;32544;52.832;13.816;2023-09-07T05:01:41;25.90;51.00
46784;DHT22;32544;52.832;13.816;2023-09-07T05:02:42;25.90;51.00
46784;DHT22;32544;52.832;13.816;2023-09-07T05:03:43;25.90;51.00
46784;DHT22;32544;52.832;13.816;2023-09-07T05:04:44;25.90;50.90
46784;DHT22;32544;52.832;13.816;2023-09-07T05:05:50;25.90;51.00
46784;DHT22;32544;52.832;13.816;2023-09-07T05:06:51;25.90;51.00
46784;DHT22;32544;52.832;13.816;2023-09-07T05:07:51;25.90;51.00
46784;DHT22;32544;52.832;13.816;2023-09-07T05:08:52;25.90;51.00
46784;DHT22;32544;52.832;13.816;2023-09-07T05:09:52;25.90;51.00
46784;DHT22;32544;52.832;13.816;2023-09-07T05:10:56;25.90;51.00
46784;DHT22;32544;52.832;13.816;2023-09-07T05:11:57;25.90;51.00
46784;DHT22;32544;52.832;13.816;2023-09-07T05:12:57;25.90;51.70
46784;DHT22;32544;52.832;13.816;2023-09-07T05:13:58;25.90;51.00
46784;DHT22;32544;52.832;13.816;2023-09-07T05:15:00;25.90;51.00
46784;DHT22;32544;52.832;13.816;2023-09-07T05:16:01;25.90;51.00
46784;DHT22;32544;52.832;13.816;2023-09-07T05:17:02;25.90;50.90
46784;DHT22;32544;52.832;13.816;2023-09-07T05:18:02;26.00;51.00
46784;DHT22;32544;52.832;13.816;2023-09-07T05:19:03;25.90;50.90
46784;DHT22;32544;52.832;13.816;2023-09-07T05:20:04;25.90;50.90
46784;DHT22;32544;52.832;13.816;2023-09-07T05:21:14;26.00;50.90
46784;DHT22;32544;52.832;13.816;2023-09-07T05:22:15;26.00;50.90
46784;DHT22;32544;52.832;13.816;2023-09-07T05:23:16;26.00;51.00
46784;DHT22;32544;52.832;13.816;2023-09-07T05:24:18;26.00;51.00
46784;DHT22;32544;52.832;13.816;2023-09-07T05:25:18;26.00;50.90
46784;DHT22;32544;52.832;13.816;2023-09-07T05:26:21;25.90;50.90
46784;DHT22;32544;52.832;13.816;2023-09-07T05:27:22;26.00;51.00
46784;DHT22;32544;52.832;13.816;2023-09-07T05:28:23;25.90;51.50
46784;DHT22;32544;52.832;13.816;2023-09-07T05:29:26;25.90;50.90
46784;DHT22;32544;52.832;13.816;2023-09-07T05:30:27;25.90;50.90
46784;DHT22;32544;52.832;13.816;2023-09-07T05:31:27;25.90;50.90
46784;DHT22;32544;52.832;13.816;2023-09-07T05:32:28;25.90;50.90
46784;DHT22;32544;52.832;13.816;2023-09-07T05:33:28;25.90;50.90
46784;DHT22;32544;52.832;13.816;2023-09-07T05:34:29;25.90;50.90
46784;DHT22;32544;52.832;13.816;2023-09-07T05:35:30;25.90;50.90
46784;DHT22;32544;52.832;13.816;2023-09-07T05:36:33;25.90;50.90
46784;DHT22;32544;52.832;13.816;2023-09-07T05:37:33;25.90;50.90
46784;DHT22;32544;52.832;13.816;2023-09-07T05:38:35;25.90;51.00
46784;DHT22;32544;52.832;13.816;2023-09-07T05:39:35;25.90;51.00
46784;DHT22;32544;52.832;13.816;2023-09-07T05:40:36;25.90;51.00
46784;DHT22;32544;52.832;13.816;2023-09-07T05:41:37;25.90;51.00
46784;DHT22;32544;52.832;13.816;2023-09-07T05:42:38;25.90;50.90
46784;DHT22;32544;52.832;13.816;2023-09-07T05:43:39;25.90;51.10
46784;DHT22;32544;52.832;13.816;2023-09-07T05:44:39;25.80;50.90
46784;DHT22;32544;52.832;13.816;2023-09-07T05:45:40;25.90;51.10
46784;DHT22;32544;52.832;13.816;2023-09-07T05:46:42;25.80;51.00
46784;DHT22;32544;52.832;13.816;2023-09-07T05:47:43;25.80;51.00
46784;DHT22;32544;52.832;13.816;2023-09-07T05:48:43;25.80;51.00
46784;DHT22;32544;52.832;13.816;2023-09-07T05:49:44;25.80;50.90
46784;DHT22;32544;52.832;13.816;2023-09-07T05:50:45;25.80;51.00
46784;DHT22;32544;52.832;13.816;2023-09-07T05:51:45;25.80;51.00
46784;DHT22;32544;52.832;13.816;2023-09-07T05:52:46;25.80;50.90
46784;DHT22;32544;52.832;13.816;2023-09-07T05:53:47;25.80;50.90
46784;DHT22;32544;52.832;13.816;2023-09-07T05:54:47;25.80;51.50
46784;DHT22;32544;52.832;13.816;2023-09-07T05:55:48;25.80;50.90
46784;DHT22;32544;52.832;13.816;2023-09-07T05:56:49;25.80;50.80
46784;DHT22;32544;52.832;13.816;2023-09-07T05:57:49;25.80;51.40
46784;DHT22;32544;52.832;13.816;2023-09-07T05:58:50;25.80;50.80
46784;DHT22;32544;52.832;13.816;2023-09-07T05:59:50;25.80;50.70
46784;DHT22;32544;52.832;13.816;2023-09-07T06:00:51;25.80;50.70
46784;DHT22;32544;52.832;13.816;2023-09-07T06:01:52;25.80;50.80
46784;DHT22;32544;52.832;13.816;2023-09-07T06:02:52;25.80;50.80
46784;DHT22;32544;52.832;13.816;2023-09-07T06:03:53;25.80;50.80
46784;DHT22;32544;52.832;13.816;2023-09-07T06:04:54;25.80;50.80
46784;DHT22;32544;52.832;13.816;2023-09-07T06:05:54;25.80;50.80
46784;DHT22;32544;52.832;13.816;2023-09-07T06:06:56;25.80;50.90
46784;DHT22;32544;52.832;13.816;2023-09-07T06:07:56;25.80;51.00
46784;DHT22;32544;52.832;13.816;2023-09-07T06:08:57;25.80;51.00
46784;DHT22;32544;52.832;13.816;2023-09-07T06:09:59;25.80;51.10
46784;DHT22;32544;52.832;13.816;2023-09-07T06:11:00;25.70;51.10
46784;DHT22;32544;52.832;13.816;2023-09-07T06:12:02;25.80;51.00
46784;DHT22;32544;52.832;13.816;2023-09-07T06:13:03;25.80;51.00
46784;DHT22;32544;52.832;13.816;2023-09-07T06:14:04;25.70;51.00
46784;DHT22;32544;52.832;13.816;2023-09-07T06:15:05;25.80;51.10
46784;DHT22;32544;52.832;13.816;2023-09-07T06:16:05;25.80;51.10
46784;DHT22;32544;52.832;13.816;2023-09-07T06:17:06;25.80;51.10
46784;DHT22;32544;52.832;13.816;2023-09-07T06:18:07;25.80;51.10
46784;DHT22;32544;52.832;13.816;2023-09-07T06:19:08;25.80;51.20
46784;DHT22;32544;52.832;13.816;2023-09-07T06:20:09;25.80;51.10